Terminal Aerodrome Forecast
Issued by NWS Central Illinois

Home | Current Version | Previous Version | Text Only | Print | Product List | Glossary On
Versions: 1 2 3 4 5 6 7 8 9 10 11 12 13 14 15 16 17 18 19 20 21
000
FTUS43 KILX 230500
TAFPIA
TAF
KPIA 230520Z 2306/2406 09003KT P6SM SCT100
     FM230800 VRB03KT 5SM BR VCSH SCT060 BKN150
     FM231400 11005KT P6SM SCT035 BKN120
     FM232000 18007KT P6SM SCT040 BKN250
     FM240100 14004KT P6SM BKN250=

USA.gov is the U.S. government's official web portal to all federal, state and local government web resources and services.